sensor_id;sensor_type;location;lat;lon;timestamp;pressure;altitude;pressure_sealevel;temperature;humidity
57250;BME280;43102;52.014;-0.680;2022-07-29T00:00:00;101039;;;18.10;52.89
57250;BME280;43102;52.014;-0.680;2022-07-29T00:01:00;101039;;;18.10;52.89
57250;BME280;43102;52.014;-0.680;2022-07-29T00:02:00;101039;;;18.10;52.89
57250;BME280;43102;52.014;-0.680;2022-07-29T00:03:00;101039;;;18.10;52.89
57250;BME280;43102;52.014;-0.680;2022-07-29T00:04:00;101036;;;18.03;53.21
57250;BME280;43102;52.014;-0.680;2022-07-29T00:05:00;101036;;;18.03;53.21
57250;BME280;43102;52.014;-0.680;2022-07-29T00:06:00;101036;;;18.03;53.21
57250;BME280;43102;52.014;-0.680;2022-07-29T00:07:00;101036;;;18.03;53.21
57250;BME280;43102;52.014;-0.680;2022-07-29T00:08:00;101036;;;18.03;53.21
57250;BME280;43102;52.014;-0.680;2022-07-29T00:09:00;101039;;;17.97;53.48
57250;BME280;43102;52.014;-0.680;2022-07-29T00:10:00;101039;;;17.97;53.48
57250;BME280;43102;52.014;-0.680;2022-07-29T00:11:00;101039;;;17.97;53.48
57250;BME280;43102;52.014;-0.680;2022-07-29T00:12:00;101039;;;17.97;53.48
57250;BME280;43102;52.014;-0.680;2022-07-29T00:13:00;101039;;;17.97;53.48
57250;BME280;43102;52.014;-0.680;2022-07-29T00:14:00;101037;;;17.89;53.85
57250;BME280;43102;52.014;-0.680;2022-07-29T00:15:00;101037;;;17.89;53.85
57250;BME280;43102;52.014;-0.680;2022-07-29T00:16:00;101037;;;17.89;53.85
57250;BME280;43102;52.014;-0.680;2022-07-29T00:17:00;101037;;;17.89;53.85
57250;BME280;43102;52.014;-0.680;2022-07-29T00:18:00;101037;;;17.89;53.85
57250;BME280;43102;52.014;-0.680;2022-07-29T00:19:00;101035;;;17.87;54.05
57250;BME280;43102;52.014;-0.680;2022-07-29T00:20:00;101035;;;17.87;54.05
57250;BME280;43102;52.014;-0.680;2022-07-29T00:21:00;101035;;;17.87;54.05
57250;BME280;43102;52.014;-0.680;2022-07-29T00:22:00;101035;;;17.87;54.05
57250;BME280;43102;52.014;-0.680;2022-07-29T00:23:00;101035;;;17.87;54.05
57250;BME280;43102;52.014;-0.680;2022-07-29T00:24:00;101028;;;17.74;54.68
57250;BME280;43102;52.014;-0.680;2022-07-29T00:25:00;101028;;;17.74;54.68
57250;BME280;43102;52.014;-0.680;2022-07-29T00:26:00;101028;;;17.74;54.68
57250;BME280;43102;52.014;-0.680;2022-07-29T00:27:00;101028;;;17.74;54.68
57250;BME280;43102;52.014;-0.680;2022-07-29T00:28:00;101028;;;17.74;54.68
57250;BME280;43102;52.014;-0.680;2022-07-29T00:29:00;101028;;;17.74;54.91
57250;BME280;43102;52.014;-0.680;2022-07-29T00:30:00;101028;;;17.74;54.91
57250;BME280;43102;52.014;-0.680;2022-07-29T00:31:02;101028;;;17.74;54.91
57250;BME280;43102;52.014;-0.680;2022-07-29T00:32:00;101028;;;17.74;54.91
57250;BME280;43102;52.014;-0.680;2022-07-29T00:33:00;101028;;;17.74;54.91
57250;BME280;43102;52.014;-0.680;2022-07-29T00:34:00;101027;;;17.68;55.41
57250;BME280;43102;52.014;-0.680;2022-07-29T00:35:00;101027;;;17.68;55.41
57250;BME280;43102;52.014;-0.680;2022-07-29T00:36:00;101027;;;17.68;55.41
57250;BME280;43102;52.014;-0.680;2022-07-29T00:37:00;101027;;;17.68;55.41
57250;BME280;43102;52.014;-0.680;2022-07-29T00:38:00;101027;;;17.68;55.41
57250;BME280;43102;52.014;-0.680;2022-07-29T00:39:00;101022;;;17.59;55.91
57250;BME280;43102;52.014;-0.680;2022-07-29T00:40:00;101022;;;17.59;55.91
57250;BME280;43102;52.014;-0.680;2022-07-29T00:41:00;101022;;;17.59;55.91
57250;BME280;43102;52.014;-0.680;2022-07-29T00:42:02;101022;;;17.59;55.91
57250;BME280;43102;52.014;-0.680;2022-07-29T00:43:00;101022;;;17.59;55.91
57250;BME280;43102;52.014;-0.680;2022-07-29T00:44:00;101025;;;17.53;56.26
57250;BME280;43102;52.014;-0.680;2022-07-29T00:45:00;101025;;;17.53;56.26
57250;BME280;43102;52.014;-0.680;2022-07-29T00:46:00;101025;;;17.53;56.26
57250;BME280;43102;52.014;-0.680;2022-07-29T00:47:00;101025;;;17.53;56.26
57250;BME280;43102;52.014;-0.680;2022-07-29T00:48:00;101025;;;17.53;56.26
57250;BME280;43102;52.014;-0.680;2022-07-29T00:49:00;101023;;;17.43;56.79
57250;BME280;43102;52.014;-0.680;2022-07-29T00:50:00;101023;;;17.43;56.79
57250;BME280;43102;52.014;-0.680;2022-07-29T00:51:01;101023;;;17.43;56.79
57250;BME280;43102;52.014;-0.680;2022-07-29T00:52:00;101023;;;17.43;56.79
57250;BME280;43102;52.014;-0.680;2022-07-29T00:53:00;101023;;;17.43;56.79
57250;BME280;43102;52.014;-0.680;2022-07-29T00:54:00;101014;;;17.31;57.34
57250;BME280;43102;52.014;-0.680;2022-07-29T00:55:00;101014;;;17.31;57.34
57250;BME280;43102;52.014;-0.680;2022-07-29T00:56:00;101014;;;17.31;57.34
57250;BME280;43102;52.014;-0.680;2022-07-29T00:57:00;101014;;;17.31;57.34
57250;BME280;43102;52.014;-0.680;2022-07-29T00:58:00;101014;;;17.31;57.34
57250;BME280;43102;52.014;-0.680;2022-07-29T00:59:00;101017;;;17.29;57.63
57250;BME280;43102;52.014;-0.680;2022-07-29T01:00:00;101017;;;17.29;57.63
57250;BME280;43102;52.014;-0.680;2022-07-29T01:01:00;101017;;;17.29;57.63
57250;BME280;43102;52.014;-0.680;2022-07-29T01:02:00;101017;;;17.29;57.63
57250;BME280;43102;52.014;-0.680;2022-07-29T01:03:00;101017;;;17.29;57.63
57250;BME280;43102;52.014;-0.680;2022-07-29T01:04:00;101018;;;17.36;57.53
57250;BME280;43102;52.014;-0.680;2022-07-29T01:05:02;101018;;;17.36;57.53
57250;BME280;43102;52.014;-0.680;2022-07-29T01:06:00;101018;;;17.36;57.53
57250;BME280;43102;52.014;-0.680;2022-07-29T01:07:00;101018;;;17.36;57.53
57250;BME280;43102;52.014;-0.680;2022-07-29T01:08:00;101018;;;17.36;57.53
57250;BME280;43102;52.014;-0.680;2022-07-29T01:09:00;101018;;;17.36;57.40
57250;BME280;43102;52.014;-0.680;2022-07-29T01:10:01;101018;;;17.36;57.40
57250;BME280;43102;52.014;-0.680;2022-07-29T01:11:00;101018;;;17.36;57.40
57250;BME280;43102;52.014;-0.680;2022-07-29T01:12:00;101018;;;17.36;57.40
57250;BME280;43102;52.014;-0.680;2022-07-29T01:13:01;101018;;;17.36;57.40
57250;BME280;43102;52.014;-0.680;2022-07-29T01:14:00;101018;;;17.33;57.55
57250;BME280;43102;52.014;-0.680;2022-07-29T01:15:00;101018;;;17.33;57.55
57250;BME280;43102;52.014;-0.680;2022-07-29T01:16:02;101018;;;17.33;57.55
57250;BME280;43102;52.014;-0.680;2022-07-29T01:17:02;101018;;;17.33;57.55
57250;BME280;43102;52.014;-0.680;2022-07-29T01:18:09;101018;;;17.33;57.55
57250;BME280;43102;52.014;-0.680;2022-07-29T01:19:00;101017;;;17.29;57.72
57250;BME280;43102;52.014;-0.680;2022-07-29T01:22:02;101017;;;17.29;57.72
57250;BME280;43102;52.014;-0.680;2022-07-29T01:30:00;101012;;;17.24;58.16
57250;BME280;43102;52.014;-0.680;2022-07-29T01:31:00;101012;;;17.24;58.16
57250;BME280;43102;52.014;-0.680;2022-07-29T01:33:01;101012;;;17.24;58.16
57250;BME280;43102;52.014;-0.680;2022-07-29T01:34:01;101011;;;17.19;58.50
57250;BME280;43102;52.014;-0.680;2022-07-29T01:36:01;101011;;;17.19;58.50
57250;BME280;43102;52.014;-0.680;2022-07-29T01:37:03;101011;;;17.19;58.50
57250;BME280;43102;52.014;-0.680;2022-07-29T01:38:05;101011;;;17.19;58.50
57250;BME280;43102;52.014;-0.680;2022-07-29T01:40:00;101014;;;17.13;58.77
57250;BME280;43102;52.014;-0.680;2022-07-29T01:41:02;101014;;;17.13;58.77
57250;BME280;43102;52.014;-0.680;2022-07-29T01:42:20;101014;;;17.13;58.77
57250;BME280;43102;52.014;-0.680;2022-07-29T01:43:01;101014;;;17.13;58.77
57250;BME280;43102;52.014;-0.680;2022-07-29T01:44:02;101018;;;17.04;59.27
57250;BME280;43102;52.014;-0.680;2022-07-29T01:45:16;101018;;;17.04;59.27
57250;BME280;43102;52.014;-0.680;2022-07-29T01:46:01;101018;;;17.04;59.27
57250;BME280;43102;52.014;-0.680;2022-07-29T01:47:01;101018;;;17.04;59.27
57250;BME280;43102;52.014;-0.680;2022-07-29T01:48:00;101018;;;17.04;59.27
57250;BME280;43102;52.014;-0.680;2022-07-29T01:49:02;101011;;;16.94;60.00
57250;BME280;43102;52.014;-0.680;2022-07-29T01:50:00;101011;;;16.94;60.00
57250;BME280;43102;52.014;-0.680;2022-07-29T01:51:04;101011;;;16.94;60.00
57250;BME280;43102;52.014;-0.680;2022-07-29T01:52:01;101011;;;16.94;60.00
57250;BME280;43102;52.014;-0.680;2022-07-29T01:53:01;101011;;;16.94;60.00
57250;BME280;43102;52.014;-0.680;2022-07-29T01:55:02;101006;;;16.85;60.39
57250;BME280;43102;52.014;-0.680;2022-07-29T01:56:00;101006;;;16.85;60.39
57250;BME280;43102;52.014;-0.680;2022-07-29T01:57:00;101006;;;16.85;60.39
57250;BME280;43102;52.014;-0.680;2022-07-29T01:58:00;101006;;;16.85;60.39
57250;BME280;43102;52.014;-0.680;2022-07-29T01:59:01;101006;;;16.70;61.35
57250;BME280;43102;52.014;-0.680;2022-07-29T02:00:00;101006;;;16.70;61.35
57250;BME280;43102;52.014;-0.680;2022-07-29T02:01:00;101006;;;16.70;61.35
57250;BME280;43102;52.014;-0.680;2022-07-29T02:02:00;101006;;;16.70;61.35
57250;BME280;43102;52.014;-0.680;2022-07-29T02:03:00;101006;;;16.70;61.35
57250;BME280;43102;52.014;-0.680;2022-07-29T02:04:01;101012;;;16.62;62.17
57250;BME280;43102;52.014;-0.680;2022-07-29T02:05:00;101012;;;16.62;62.17
57250;BME280;43102;52.014;-0.680;2022-07-29T02:06:00;101012;;;16.62;62.17
57250;BME280;43102;52.014;-0.680;2022-07-29T02:07:02;101012;;;16.62;62.17
57250;BME280;43102;52.014;-0.680;2022-07-29T02:08:00;101012;;;16.62;62.17
57250;BME280;43102;52.014;-0.680;2022-07-29T02:09:00;101012;;;16.60;62.20
57250;BME280;43102;52.014;-0.680;2022-07-29T02:10:00;101012;;;16.60;62.20
57250;BME280;43102;52.014;-0.680;2022-07-29T02:11:00;101012;;;16.60;62.20
57250;BME280;43102;52.014;-0.680;2022-07-29T02:12:00;101012;;;16.60;62.20
57250;BME280;43102;52.014;-0.680;2022-07-29T02:13:00;101012;;;16.60;62.20
57250;BME280;43102;52.014;-0.680;2022-07-29T02:14:00;101006;;;16.60;62.48
57250;BME280;43102;52.014;-0.680;2022-07-29T02:15:01;101006;;;16.60;62.48
57250;BME280;43102;52.014;-0.680;2022-07-29T02:16:00;101006;;;16.60;62.48
57250;BME280;43102;52.014;-0.680;2022-07-29T02:17:00;101006;;;16.60;62.48
57250;BME280;43102;52.014;-0.680;2022-07-29T02:18:02;101006;;;16.60;62.48
57250;BME280;43102;52.014;-0.680;2022-07-29T02:19:00;101010;;;16.57;62.92
57250;BME280;43102;52.014;-0.680;2022-07-29T02:20:00;101010;;;16.57;62.92
57250;BME280;43102;52.014;-0.680;2022-07-29T02:21:00;101010;;;16.57;62.92
57250;BME280;43102;52.014;-0.680;2022-07-29T02:22:00;101010;;;16.57;62.92
57250;BME280;43102;52.014;-0.680;2022-07-29T02:23:00;101010;;;16.57;62.92
57250;BME280;43102;52.014;-0.680;2022-07-29T02:24:00;101007;;;16.54;62.97
57250;BME280;43102;52.014;-0.680;2022-07-29T02:25:00;101007;;;16.54;62.97
57250;BME280;43102;52.014;-0.680;2022-07-29T02:26:00;101007;;;16.54;62.97
57250;BME280;43102;52.014;-0.680;2022-07-29T02:27:00;101007;;;16.54;62.97
57250;BME280;43102;52.014;-0.680;2022-07-29T02:28:00;101007;;;16.54;62.97
57250;BME280;43102;52.014;-0.680;2022-07-29T02:29:00;101005;;;16.49;63.13
57250;BME280;43102;52.014;-0.680;2022-07-29T02:30:00;101005;;;16.49;63.13
57250;BME280;43102;52.014;-0.680;2022-07-29T02:31:00;101005;;;16.49;63.13
57250;BME280;43102;52.014;-0.680;2022-07-29T02:32:00;101005;;;16.49;63.13
57250;BME280;43102;52.014;-0.680;2022-07-29T02:33:00;101005;;;16.49;63.13
57250;BME280;43102;52.014;-0.680;2022-07-29T02:34:01;101008;;;16.46;63.43
57250;BME280;43102;52.014;-0.680;2022-07-29T02:35:00;101008;;;16.46;63.43
57250;BME280;43102;52.014;-0.680;2022-07-29T02:36:00;101008;;;16.46;63.43
57250;BME280;43102;52.014;-0.680;2022-07-29T02:37:00;101008;;;16.46;63.43
57250;BME280;43102;52.014;-0.680;2022-07-29T02:38:00;101008;;;16.46;63.43
57250;BME280;43102;52.014;-0.680;2022-07-29T02:39:00;101009;;;16.46;63.39
57250;BME280;43102;52.014;-0.680;2022-07-29T02:40:00;101009;;;16.46;63.39
57250;BME280;43102;52.014;-0.680;2022-07-29T02:41:01;101009;;;16.46;63.39
57250;BME280;43102;52.014;-0.680;2022-07-29T02:42:02;101009;;;16.46;63.39
57250;BME280;43102;52.014;-0.680;2022-07-29T02:43:01;101009;;;16.46;63.39
57250;BME280;43102;52.014;-0.680;2022-07-29T02:44:04;101015;;;16.46;63.40
57250;BME280;43102;52.014;-0.680;2022-07-29T02:45:00;101015;;;16.46;63.40
57250;BME280;43102;52.014;-0.680;2022-07-29T02:46:00;101015;;;16.46;63.40
57250;BME280;43102;52.014;-0.680;2022-07-29T02:47:02;101015;;;16.46;63.40
57250;BME280;43102;52.014;-0.680;2022-07-29T02:48:00;101015;;;16.46;63.40
57250;BME280;43102;52.014;-0.680;2022-07-29T02:49:02;101008;;;16.44;63.47
57250;BME280;43102;52.014;-0.680;2022-07-29T02:50:00;101008;;;16.44;63.47
57250;BME280;43102;52.014;-0.680;2022-07-29T02:51:04;101008;;;16.44;63.47
57250;BME280;43102;52.014;-0.680;2022-07-29T02:52:01;101008;;;16.44;63.47
57250;BME280;43102;52.014;-0.680;2022-07-29T02:53:11;101008;;;16.44;63.47
57250;BME280;43102;52.014;-0.680;2022-07-29T02:54:01;101010;;;16.42;63.59
57250;BME280;43102;52.014;-0.680;2022-07-29T02:55:01;101010;;;16.42;63.59
57250;BME280;43102;52.014;-0.680;2022-07-29T02:56:01;101010;;;16.42;63.59
57250;BME280;43102;52.014;-0.680;2022-07-29T02:57:00;101010;;;16.42;63.59
57250;BME280;43102;52.014;-0.680;2022-07-29T02:58:02;101010;;;16.42;63.59
57250;BME280;43102;52.014;-0.680;2022-07-29T02:59:01;101022;;;16.41;63.69
57250;BME280;43102;52.014;-0.680;2022-07-29T03:00:02;101022;;;16.41;63.69
57250;BME280;43102;52.014;-0.680;2022-07-29T03:01:02;101022;;;16.41;63.69
57250;BME280;43102;52.014;-0.680;2022-07-29T03:02:00;101022;;;16.41;63.69
57250;BME280;43102;52.014;-0.680;2022-07-29T03:03:00;101022;;;16.41;63.69
57250;BME280;43102;52.014;-0.680;2022-07-29T03:04:00;101024;;;16.42;63.79
57250;BME280;43102;52.014;-0.680;2022-07-29T03:05:00;101024;;;16.42;63.79
57250;BME280;43102;52.014;-0.680;2022-07-29T03:06:00;101024;;;16.42;63.79
57250;BME280;43102;52.014;-0.680;2022-07-29T03:07:00;101024;;;16.42;63.79
57250;BME280;43102;52.014;-0.680;2022-07-29T03:08:00;101024;;;16.42;63.79
57250;BME280;43102;52.014;-0.680;2022-07-29T03:09:00;101022;;;16.39;63.86
57250;BME280;43102;52.014;-0.680;2022-07-29T03:10:00;101022;;;16.39;63.86
57250;BME280;43102;52.014;-0.680;2022-07-29T03:11:00;101022;;;16.39;63.86
57250;BME280;43102;52.014;-0.680;2022-07-29T03:12:00;101022;;;16.39;63.86
57250;BME280;43102;52.014;-0.680;2022-07-29T03:13:00;101022;;;16.39;63.86
57250;BME280;43102;52.014;-0.680;2022-07-29T03:14:00;101018;;;16.33;64.19
57250;BME280;43102;52.014;-0.680;2022-07-29T03:15:00;101018;;;16.33;64.19
57250;BME280;43102;52.014;-0.680;2022-07-29T03:16:00;101018;;;16.33;64.19
57250;BME280;43102;52.014;-0.680;2022-07-29T03:17:00;101018;;;16.33;64.19
57250;BME280;43102;52.014;-0.680;2022-07-29T03:18:00;101018;;;16.33;64.19
57250;BME280;43102;52.014;-0.680;2022-07-29T03:19:00;101013;;;16.25;64.48
57250;BME280;43102;52.014;-0.680;2022-07-29T03:20:00;101013;;;16.25;64.48
57250;BME280;43102;52.014;-0.680;2022-07-29T03:21:00;101013;;;16.25;64.48
57250;BME280;43102;52.014;-0.680;2022-07-29T03:22:00;101013;;;16.25;64.48
57250;BME280;43102;52.014;-0.680;2022-07-29T03:23:00;101013;;;16.25;64.48
57250;BME280;43102;52.014;-0.680;2022-07-29T03:24:00;101014;;;16.30;64.40
57250;BME280;43102;52.014;-0.680;2022-07-29T03:25:07;101014;;;16.30;64.40
57250;BME280;43102;52.014;-0.680;2022-07-29T03:26:00;101014;;;16.30;64.40
57250;BME280;43102;52.014;-0.680;2022-07-29T03:27:00;101014;;;16.30;64.40
57250;BME280;43102;52.014;-0.680;2022-07-29T03:28:00;101014;;;16.30;64.40
57250;BME280;43102;52.014;-0.680;2022-07-29T03:29:00;101011;;;16.31;64.42
57250;BME280;43102;52.014;-0.680;2022-07-29T03:30:00;101011;;;16.31;64.42
57250;BME280;43102;52.014;-0.680;2022-07-29T03:31:00;101011;;;16.31;64.42
57250;BME280;43102;52.014;-0.680;2022-07-29T03:32:02;101011;;;16.31;64.42
57250;BME280;43102;52.014;-0.680;2022-07-29T03:33:00;101011;;;16.31;64.42
57250;BME280;43102;52.014;-0.680;2022-07-29T03:34:00;101000;;;16.24;64.83
57250;BME280;43102;52.014;-0.680;2022-07-29T03:35:00;101000;;;16.24;64.83
57250;BME280;43102;52.014;-0.680;2022-07-29T03:36:00;101000;;;16.24;64.83
57250;BME280;43102;52.014;-0.680;2022-07-29T03:37:00;101000;;;16.24;64.83
57250;BME280;43102;52.014;-0.680;2022-07-29T03:38:00;101000;;;16.24;64.83
57250;BME280;43102;52.014;-0.680;2022-07-29T03:39:00;100997;;;16.22;65.09
57250;BME280;43102;52.014;-0.680;2022-07-29T03:40:00;100997;;;16.22;65.09
57250;BME280;43102;52.014;-0.680;2022-07-29T03:41:01;100997;;;16.22;65.09
57250;BME280;43102;52.014;-0.680;2022-07-29T03:42:00;100997;;;16.22;65.09
57250;BME280;43102;52.014;-0.680;2022-07-29T03:43:00;100997;;;16.22;65.09
57250;BME280;43102;52.014;-0.680;2022-07-29T03:44:00;100988;;;16.12;65.56
57250;BME280;43102;52.014;-0.680;2022-07-29T03:45:01;100988;;;16.12;65.56
57250;BME280;43102;52.014;-0.680;2022-07-29T03:46:00;100988;;;16.12;65.56
57250;BME280;43102;52.014;-0.680;2022-07-29T03:47:00;100988;;;16.12;65.56
57250;BME280;43102;52.014;-0.680;2022-07-29T03:48:02;100988;;;16.12;65.56
57250;BME280;43102;52.014;-0.680;2022-07-29T03:49:00;100995;;;16.05;66.08
57250;BME280;43102;52.014;-0.680;2022-07-29T03:50:00;100995;;;16.05;66.08
57250;BME280;43102;52.014;-0.680;2022-07-29T03:51:00;100995;;;16.05;66.08
57250;BME280;43102;52.014;-0.680;2022-07-29T03:52:00;100995;;;16.05;66.08
57250;BME280;43102;52.014;-0.680;2022-07-29T03:53:00;100995;;;16.05;66.08
57250;BME280;43102;52.014;-0.680;2022-07-29T03:54:01;100997;;;16.03;66.09
57250;BME280;43102;52.014;-0.680;2022-07-29T03:55:00;100997;;;16.03;66.09
57250;BME280;43102;52.014;-0.680;2022-07-29T03:56:00;100997;;;16.03;66.09
57250;BME280;43102;52.014;-0.680;2022-07-29T03:57:01;100997;;;16.03;66.09
57250;BME280;43102;52.014;-0.680;2022-07-29T03:58:00;100997;;;16.03;66.09
57250;BME280;43102;52.014;-0.680;2022-07-29T03:59:00;101009;;;16.14;65.78
57250;BME280;43102;52.014;-0.680;2022-07-29T04:00:00;101009;;;16.14;65.78
57250;BME280;43102;52.014;-0.680;2022-07-29T04:01:00;101009;;;16.14;65.78
57250;BME280;43102;52.014;-0.680;2022-07-29T04:02:00;101009;;;16.14;65.78
57250;BME280;43102;52.014;-0.680;2022-07-29T04:03:00;101009;;;16.14;65.78
57250;BME280;43102;52.014;-0.680;2022-07-29T04:04:01;101017;;;16.20;65.72
57250;BME280;43102;52.014;-0.680;2022-07-29T04:05:00;101017;;;16.20;65.72
57250;BME280;43102;52.014;-0.680;2022-07-29T04:06:01;101017;;;16.20;65.72
57250;BME280;43102;52.014;-0.680;2022-07-29T04:07:00;101017;;;16.20;65.72
57250;BME280;43102;52.014;-0.680;2022-07-29T04:08:00;101017;;;16.20;65.72
57250;BME280;43102;52.014;-0.680;2022-07-29T04:09:00;101022;;;16.15;65.82
57250;BME280;43102;52.014;-0.680;2022-07-29T04:10:00;101022;;;16.15;65.82
57250;BME280;43102;52.014;-0.680;2022-07-29T04:11:00;101022;;;16.15;65.82
57250;BME280;43102;52.014;-0.680;2022-07-29T04:12:00;101022;;;16.15;65.82
57250;BME280;43102;52.014;-0.680;2022-07-29T04:13:00;101022;;;16.15;65.82
57250;BME280;43102;52.014;-0.680;2022-07-29T04:14:00;101027;;;16.15;65.71
57250;BME280;43102;52.014;-0.680;2022-07-29T04:15:00;101027;;;16.15;65.71
57250;BME280;43102;52.014;-0.680;2022-07-29T04:16:00;101027;;;16.15;65.71
57250;BME280;43102;52.014;-0.680;2022-07-29T04:17:00;101027;;;16.15;65.71
57250;BME280;43102;52.014;-0.680;2022-07-29T04:18:00;101027;;;16.15;65.71
57250;BME280;43102;52.014;-0.680;2022-07-29T04:19:00;101033;;;16.22;65.32
57250;BME280;43102;52.014;-0.680;2022-07-29T04:20:00;101033;;;16.22;65.32
57250;BME280;43102;52.014;-0.680;2022-07-29T04:21:00;101033;;;16.22;65.32
57250;BME280;43102;52.014;-0.680;2022-07-29T04:22:00;101033;;;16.22;65.32
57250;BME280;43102;52.014;-0.680;2022-07-29T04:23:00;101033;;;16.22;65.32
57250;BME280;43102;52.014;-0.680;2022-07-29T04:24:00;101029;;;16.15;65.48
57250;BME280;43102;52.014;-0.680;2022-07-29T04:25:00;101029;;;16.15;65.48
57250;BME280;43102;52.014;-0.680;2022-07-29T04:26:00;101029;;;16.15;65.48
57250;BME280;43102;52.014;-0.680;2022-07-29T04:27:00;101029;;;16.15;65.48
57250;BME280;43102;52.014;-0.680;2022-07-29T04:28:00;101029;;;16.15;65.48
57250;BME280;43102;52.014;-0.680;2022-07-29T04:29:00;101025;;;15.99;65.93
57250;BME280;43102;52.014;-0.680;2022-07-29T04:30:00;101025;;;15.99;65.93
57250;BME280;43102;52.014;-0.680;2022-07-29T04:31:00;101025;;;15.99;65.93
57250;BME280;43102;52.014;-0.680;2022-07-29T04:32:00;101025;;;15.99;65.93
57250;BME280;43102;52.014;-0.680;2022-07-29T04:33:00;101025;;;15.99;65.93
57250;BME280;43102;52.014;-0.680;2022-07-29T04:34:00;101024;;;15.86;66.72
57250;BME280;43102;52.014;-0.680;2022-07-29T04:35:00;101024;;;15.86;66.72
57250;BME280;43102;52.014;-0.680;2022-07-29T04:36:00;101024;;;15.86;66.72
57250;BME280;43102;52.014;-0.680;2022-07-29T04:37:00;101024;;;15.86;66.72
57250;BME280;43102;52.014;-0.680;2022-07-29T04:38:00;101024;;;15.86;66.72
57250;BME280;43102;52.014;-0.680;2022-07-29T04:39:00;101013;;;15.84;66.78
57250;BME280;43102;52.014;-0.680;2022-07-29T04:40:00;101013;;;15.84;66.78
57250;BME280;43102;52.014;-0.680;2022-07-29T04:41:00;101013;;;15.84;66.78
57250;BME280;43102;52.014;-0.680;2022-07-29T04:42:00;101013;;;15.84;66.78
57250;BME280;43102;52.014;-0.680;2022-07-29T04:43:00;101013;;;15.84;66.78
57250;BME280;43102;52.014;-0.680;2022-07-29T04:44:00;101018;;;15.77;66.99
57250;BME280;43102;52.014;-0.680;2022-07-29T04:45:00;101018;;;15.77;66.99
57250;BME280;43102;52.014;-0.680;2022-07-29T04:46:00;101018;;;15.77;66.99
57250;BME280;43102;52.014;-0.680;2022-07-29T04:47:00;101018;;;15.77;66.99
57250;BME280;43102;52.014;-0.680;2022-07-29T04:48:00;101018;;;15.77;66.99
57250;BME280;43102;52.014;-0.680;2022-07-29T04:49:00;101030;;;15.73;67.14
57250;BME280;43102;52.014;-0.680;2022-07-29T04:50:00;101030;;;15.73;67.14
57250;BME280;43102;52.014;-0.680;2022-07-29T04:51:00;101030;;;15.73;67.14
57250;BME280;43102;52.014;-0.680;2022-07-29T04:52:00;101030;;;15.73;67.14
57250;BME280;43102;52.014;-0.680;2022-07-29T04:53:00;101030;;;15.73;67.14
57250;BME280;43102;52.014;-0.680;2022-07-29T04:54:00;101027;;;15.78;67.04
57250;BME280;43102;52.014;-0.680;2022-07-29T04:55:00;101027;;;15.78;67.04
57250;BME280;43102;52.014;-0.680;2022-07-29T04:56:00;101027;;;15.78;67.04
57250;BME280;43102;52.014;-0.680;2022-07-29T04:57:00;101027;;;15.78;67.04
57250;BME280;43102;52.014;-0.680;2022-07-29T04:58:00;101027;;;15.78;67.04
57250;BME280;43102;52.014;-0.680;2022-07-29T04:59:00;101023;;;15.88;66.97
57250;BME280;43102;52.014;-0.680;2022-07-29T05:00:00;101023;;;15.88;66.97
57250;BME280;43102;52.014;-0.680;2022-07-29T05:01:00;101023;;;15.88;66.97
57250;BME280;43102;52.014;-0.680;2022-07-29T05:02:00;101023;;;15.88;66.97
57250;BME280;43102;52.014;-0.680;2022-07-29T05:03:00;101023;;;15.88;66.97
57250;BME280;43102;52.014;-0.680;2022-07-29T05:04:00;101026;;;16.00;66.85
57250;BME280;43102;52.014;-0.680;2022-07-29T05:05:00;101026;;;16.00;66.85
57250;BME280;43102;52.014;-0.680;2022-07-29T05:06:00;101026;;;16.00;66.85
57250;BME280;43102;52.014;-0.680;2022-07-29T05:07:00;101026;;;16.00;66.85
57250;BME280;43102;52.014;-0.680;2022-07-29T05:08:00;101026;;;16.00;66.85
57250;BME280;43102;52.014;-0.680;2022-07-29T05:09:00;101026;;;15.92;67.11
57250;BME280;43102;52.014;-0.680;2022-07-29T05:10:00;101026;;;15.92;67.11
57250;BME280;43102;52.014;-0.680;2022-07-29T05:11:00;101026;;;15.92;67.11
57250;BME280;43102;52.014;-0.680;2022-07-29T05:12:00;101026;;;15.92;67.11
57250;BME280;43102;52.014;-0.680;2022-07-29T05:13:00;101026;;;15.92;67.11
57250;BME280;43102;52.014;-0.680;2022-07-29T05:14:00;101019;;;15.97;67.22
57250;BME280;43102;52.014;-0.680;2022-07-29T05:15:00;101019;;;15.97;67.22
57250;BME280;43102;52.014;-0.680;2022-07-29T05:16:00;101019;;;15.97;67.22
57250;BME280;43102;52.014;-0.680;2022-07-29T05:17:00;101019;;;15.97;67.22
57250;BME280;43102;52.014;-0.680;2022-07-29T05:18:00;101019;;;15.97;67.22
57250;BME280;43102;52.014;-0.680;2022-07-29T05:19:00;101019;;;16.13;66.85
57250;BME280;43102;52.014;-0.680;2022-07-29T05:20:00;101019;;;16.13;66.85
57250;BME280;43102;52.014;-0.680;2022-07-29T05:21:00;101019;;;16.13;66.85
57250;BME280;43102;52.014;-0.680;2022-07-29T05:22:00;101019;;;16.13;66.85
57250;BME280;43102;52.014;-0.680;2022-07-29T05:23:00;101019;;;16.13;66.85
57250;BME280;43102;52.014;-0.680;2022-07-29T05:24:00;101027;;;16.25;66.60
57250;BME280;43102;52.014;-0.680;2022-07-29T05:25:00;101027;;;16.25;66.60
57250;BME280;43102;52.014;-0.680;2022-07-29T05:26:00;101027;;;16.25;66.60
57250;BME280;43102;52.014;-0.680;2022-07-29T05:27:00;101027;;;16.25;66.60
57250;BME280;43102;52.014;-0.680;2022-07-29T05:28:00;101027;;;16.25;66.60
57250;BME280;43102;52.014;-0.680;2022-07-29T05:29:00;101034;;;16.37;66.29
57250;BME280;43102;52.014;-0.680;2022-07-29T05:30:00;101034;;;16.37;66.29
57250;BME280;43102;52.014;-0.680;2022-07-29T05:31:00;101034;;;16.37;66.29
57250;BME280;43102;52.014;-0.680;2022-07-29T05:32:00;101034;;;16.37;66.29
57250;BME280;43102;52.014;-0.680;2022-07-29T05:33:00;101034;;;16.37;66.29
57250;BME280;43102;52.014;-0.680;2022-07-29T05:34:00;101035;;;16.35;66.61